Time,TemperatureF,DewpointF,PressureIn,WindDirection,WindDirectionDegrees,WindSpeedMPH,WindSpeedGustMPH,Humidity,HourlyPrecipIn,Conditions,Clouds,dailyrainin,SoftwareType,DateUTC
2017-09-26 00:04:00,73.1,64.3,29.90,ESE,121,2.0,3.1,74,0.00,,FEW,0.00,VWS V15.00,2017-09-26 05:04:00,
2017-09-26 00:09:00,73.0,64.2,29.90,SSE,149,5.0,5.2,74,0.00,,FEW,0.00,VWS V15.00,2017-09-26 05:09:00,
2017-09-26 00:14:00,73.0,64.2,29.90,SE,140,1.0,3.1,74,0.00,,FEW,0.00,VWS V15.00,2017-09-26 05:14:00,
2017-09-26 00:19:00,72.8,64.4,29.90,SE,144,0.0,1.0,75,0.00,,FEW,0.00,VWS V15.00,2017-09-26 05:19:00,
2017-09-26 00:24:00,72.7,64.3,29.90,ESE,113,4.0,6.3,75,0.00,,FEW,0.00,VWS V15.00,2017-09-26 05:24:00,
2017-09-26 00:29:00,72.4,64.4,29.90,East,92,1.0,1.0,76,0.00,,FEW,0.00,VWS V15.00,2017-09-26 05:29:00,
2017-09-26 00:34:00,72.3,64.3,29.90,SE,132,1.0,1.0,76,0.00,,FEW,0.00,VWS V15.00,2017-09-26 05:34:00,
2017-09-26 00:39:00,72.2,64.2,29.90,SE,134,3.0,4.2,76,0.00,,FEW,0.00,VWS V15.00,2017-09-26 05:39:00,
2017-09-26 00:44:00,72.3,64.3,29.90,ESE,115,1.0,1.0,76,0.00,,FEW,0.00,VWS V15.00,2017-09-26 05:44:00,
2017-09-26 00:49:00,72.3,64.3,29.90,ESE,117,0.0,0.0,76,0.00,,FEW,0.00,VWS V15.00,2017-09-26 05:49:00,
2017-09-26 00:54:00,72.1,64.1,29.90,ESE,116,0.0,0.0,76,0.00,,FEW,0.00,VWS V15.00,2017-09-26 05:54:00,
2017-09-26 00:59:00,72.0,64.4,29.90,SE,130,1.0,2.1,77,0.00,,FEW,0.00,VWS V15.00,2017-09-26 05:59:00,
2017-09-26 01:04:00,71.9,64.3,29.90,East,97,0.0,1.0,77,0.00,,FEW,0.00,VWS V15.00,2017-09-26 06:04:00,
2017-09-26 01:09:00,71.7,64.1,29.90,SE,130,0.0,2.1,77,0.00,,FEW,0.00,VWS V15.00,2017-09-26 06:09:00,
2017-09-26 01:19:00,71.7,64.1,29.91,East,94,0.0,0.0,77,0.00,,FEW,0.00,VWS V15.00,2017-09-26 06:19:00,
2017-09-26 01:24:00,71.7,64.1,29.90,East,100,0.0,0.0,77,0.00,,FEW,0.00,VWS V15.00,2017-09-26 06:24:00,
2017-09-26 01:29:00,71.6,64.0,29.90,East,100,0.0,0.0,77,0.00,,FEW,0.00,VWS V15.00,2017-09-26 06:29:00,
2017-09-26 01:34:00,71.5,64.3,29.90,ESE,113,0.0,1.0,78,0.00,,FEW,0.00,VWS V15.00,2017-09-26 06:34:00,
2017-09-26 01:39:00,71.5,64.3,29.90,ESE,110,1.0,2.1,78,0.00,,FEW,0.00,VWS V15.00,2017-09-26 06:39:00,
2017-09-26 01:44:00,71.3,64.1,29.90,ESE,108,0.0,1.0,78,0.00,,FEW,0.00,VWS V15.00,2017-09-26 06:44:00,
2017-09-26 01:49:00,71.2,64.0,29.91,ESE,107,0.0,1.0,78,0.00,,FEW,0.00,VWS V15.00,2017-09-26 06:49:00,
2017-09-26 01:55:00,71.2,64.0,29.91,ESE,107,0.0,1.0,78,0.00,,FEW,0.00,VWS V15.00,2017-09-26 06:55:00,
2017-09-26 02:00:00,71.0,64.2,29.91,ESE,107,1.0,1.0,79,0.00,,FEW,0.00,VWS V15.00,2017-09-26 07:00:00,
2017-09-26 02:05:00,70.9,64.1,29.91,ESE,107,0.0,0.0,79,0.00,,FEW,0.00,VWS V15.00,2017-09-26 07:05:00,
2017-09-26 02:10:00,70.8,64.0,29.90,ESE,107,0.0,0.0,79,0.00,,FEW,0.00,VWS V15.00,2017-09-26 07:10:00,
2017-09-26 02:15:00,70.8,64.0,29.91,SSE,153,0.0,0.0,79,0.00,,FEW,0.00,VWS V15.00,2017-09-26 07:15:00,
2017-09-26 02:20:00,70.6,63.8,29.91,SSE,153,1.0,1.0,79,0.00,,FEW,0.00,VWS V15.00,2017-09-26 07:20:00,
2017-09-26 02:25:00,70.4,63.9,29.91,SSE,153,1.0,1.0,80,0.00,,FEW,0.00,VWS V15.00,2017-09-26 07:25:00,
2017-09-26 02:30:00,69.9,63.8,29.91,SSE,153,1.0,2.1,81,0.00,,FEW,0.00,VWS V15.00,2017-09-26 07:30:00,
2017-09-26 02:35:00,70.1,64.0,29.91,SSE,153,0.0,1.0,81,0.00,,FEW,0.00,VWS V15.00,2017-09-26 07:35:00,
2017-09-26 02:40:00,70.2,64.1,29.91,SSE,153,0.0,0.0,81,0.00,,FEW,0.00,VWS V15.00,2017-09-26 07:40:00,
2017-09-26 02:45:00,70.1,64.0,29.91,SSE,153,0.0,0.0,81,0.00,,FEW,0.00,VWS V15.00,2017-09-26 07:45:00,
2017-09-26 02:50:00,70.2,64.1,29.91,SSE,153,0.0,0.0,81,0.00,,FEW,0.00,VWS V15.00,2017-09-26 07:50:00,
2017-09-26 02:55:00,70.1,64.0,29.91,SSE,153,0.0,0.0,81,0.00,,FEW,0.00,VWS V15.00,2017-09-26 07:55:00,
2017-09-26 03:00:00,70.2,64.1,29.91,SSE,153,0.0,1.0,81,0.00,,FEW,0.00,VWS V15.00,2017-09-26 08:00:00,
2017-09-26 03:05:00,70.2,64.1,29.90,SSE,153,0.0,0.0,81,0.00,,FEW,0.00,VWS V15.00,2017-09-26 08:05:00,
2017-09-26 03:10:00,70.3,64.2,29.91,SSE,153,0.0,1.0,81,0.00,,FEW,0.00,VWS V15.00,2017-09-26 08:10:00,
2017-09-26 03:15:00,70.7,64.2,29.91,SSE,153,0.0,0.0,80,0.00,,FEW,0.00,VWS V15.00,2017-09-26 08:15:00,
2017-09-26 03:20:00,71.0,64.2,29.91,SSE,153,0.0,0.0,79,0.00,,FEW,0.00,VWS V15.00,2017-09-26 08:20:00,
2017-09-26 03:25:00,71.1,64.3,29.91,SSE,153,0.0,1.0,79,0.00,,FEW,0.00,VWS V15.00,2017-09-26 08:25:00,
2017-09-26 03:30:00,71.1,64.3,29.91,SSE,154,1.0,1.0,79,0.00,,FEW,0.00,VWS V15.00,2017-09-26 08:30:00,
2017-09-26 03:35:00,71.3,64.5,29.91,SSE,154,1.0,2.1,79,0.00,,FEW,0.00,VWS V15.00,2017-09-26 08:35:00,
2017-09-26 03:40:00,71.4,64.2,29.91,SSE,154,1.0,1.0,78,0.00,,FEW,0.00,VWS V15.00,2017-09-26 08:40:00,
2017-09-26 03:45:00,71.2,64.4,29.91,SSE,154,0.0,1.0,79,0.00,,FEW,0.00,VWS V15.00,2017-09-26 08:45:00,
2017-09-26 03:55:00,71.6,64.4,29.92,South,187,3.0,3.1,78,0.00,,FEW,0.00,VWS V15.00,2017-09-26 08:55:00,
2017-09-26 04:00:00,71.6,64.4,29.91,SSW,211,1.0,3.1,78,0.00,,FEW,0.00,VWS V15.00,2017-09-26 09:00:00,
2017-09-26 04:05:00,71.9,64.3,29.92,SSW,209,2.0,2.1,77,0.00,,FEW,0.00,VWS V15.00,2017-09-26 09:05:00,
2017-09-26 04:10:00,71.7,64.5,29.92,SSW,209,0.0,1.0,78,0.00,,FEW,0.00,VWS V15.00,2017-09-26 09:10:00,
2017-09-26 04:15:00,71.4,64.2,29.91,SSW,209,0.0,0.0,78,0.00,,FEW,0.00,VWS V15.00,2017-09-26 09:15:00,
2017-09-26 04:20:00,71.1,64.3,29.91,SSW,209,0.0,0.0,79,0.00,,FEW,0.00,VWS V15.00,2017-09-26 09:20:00,
2017-09-26 04:25:00,70.9,64.1,29.91,SSW,209,0.0,0.0,79,0.00,,FEW,0.00,VWS V15.00,2017-09-26 09:25:00,
2017-09-26 04:30:00,70.4,63.9,29.92,SSW,209,0.0,0.0,80,0.00,,FEW,0.00,VWS V15.00,2017-09-26 09:30:00,
2017-09-26 04:35:00,70.5,64.0,29.92,SSW,209,2.0,2.1,80,0.00,,FEW,0.00,VWS V15.00,2017-09-26 09:35:00,
2017-09-26 04:40:00,70.1,64.0,29.92,SSW,209,0.0,1.0,81,0.00,,FEW,0.00,VWS V15.00,2017-09-26 09:40:00,
2017-09-26 04:45:00,69.9,63.8,29.92,SSW,209,2.0,2.1,81,0.00,,FEW,0.00,VWS V15.00,2017-09-26 09:45:00,
2017-09-26 04:50:00,69.5,63.8,29.92,SSW,209,0.0,0.0,82,0.00,,FEW,0.00,VWS V15.00,2017-09-26 09:50:00,
2017-09-26 04:51:00,69.3,63.6,29.92,SSW,209,0.0,0.0,82,0.00,,FEW,0.00,VWS V15.00,2017-09-26 09:51:00,
2017-09-26 04:56:00,69.0,63.6,29.92,SSW,209,0.0,0.0,83,0.00,,FEW,0.00,VWS V15.00,2017-09-26 09:56:00,
2017-09-26 05:01:00,69.0,63.6,29.92,SSW,209,0.0,0.0,83,0.00,,FEW,0.00,VWS V15.00,2017-09-26 10:01:00,
2017-09-26 05:06:00,68.9,63.5,29.92,SSW,209,2.0,2.1,83,0.00,,FEW,0.00,VWS V15.00,2017-09-26 10:06:00,
2017-09-26 05:11:00,69.1,63.7,29.92,SSW,209,0.0,1.0,83,0.00,,FEW,0.00,VWS V15.00,2017-09-26 10:11:00,
2017-09-26 05:16:00,68.8,63.4,29.92,SSW,209,0.0,0.0,83,0.00,,FEW,0.00,VWS V15.00,2017-09-26 10:16:00,
2017-09-26 05:21:00,68.8,63.8,29.92,SSW,209,0.0,0.0,84,0.00,,FEW,0.00,VWS V15.00,2017-09-26 10:21:00,
2017-09-26 05:26:00,69.0,63.6,29.92,SSW,209,0.0,0.0,83,0.00,,FEW,0.00,VWS V15.00,2017-09-26 10:26:00,
2017-09-26 05:31:00,68.4,63.4,29.92,SSW,209,0.0,0.0,84,0.00,,FEW,0.00,VWS V15.00,2017-09-26 10:31:00,
2017-09-26 05:36:00,67.7,63.4,29.92,SSW,209,0.0,0.0,86,0.00,,FEW,0.00,VWS V15.00,2017-09-26 10:36:00,
2017-09-26 05:41:00,67.2,63.2,29.92,SSW,209,0.0,0.0,87,0.00,,FEW,0.00,VWS V15.00,2017-09-26 10:41:00,
2017-09-26 05:46:00,66.7,63.0,29.93,SSW,209,0.0,0.0,88,0.00,,FEW,0.00,VWS V15.00,2017-09-26 10:46:00,
2017-09-26 05:51:00,66.5,62.8,29.93,SSW,209,0.0,0.0,88,0.00,,FEW,0.00,VWS V15.00,2017-09-26 10:51:00,
2017-09-26 05:56:00,66.5,62.8,29.93,SSW,209,0.0,0.0,88,0.00,,FEW,0.00,VWS V15.00,2017-09-26 10:56:00,
2017-09-26 06:01:00,66.4,63.1,29.93,SSW,209,0.0,0.0,89,0.00,,FEW,0.00,VWS V15.00,2017-09-26 11:01:00,
2017-09-26 06:06:00,66.6,63.3,29.93,SSW,209,0.0,0.0,89,0.00,,FEW,0.00,VWS V15.00,2017-09-26 11:06:00,
2017-09-26 06:16:00,67.2,63.2,29.93,SSW,209,0.0,0.0,87,0.00,,FEW,0.00,VWS V15.00,2017-09-26 11:16:00,
2017-09-26 06:21:00,67.2,63.2,29.93,SSW,209,0.0,0.0,87,0.00,,FEW,0.00,VWS V15.00,2017-09-26 11:21:00,
2017-09-26 06:26:00,67.0,63.0,29.94,SSW,209,0.0,0.0,87,0.00,,FEW,0.00,VWS V15.00,2017-09-26 11:26:00,
2017-09-26 06:31:00,66.9,63.2,29.94,SSW,209,0.0,0.0,88,0.00,,FEW,0.00,VWS V15.00,2017-09-26 11:31:00,
2017-09-26 06:36:00,66.7,63.0,29.94,SSW,209,0.0,0.0,88,0.00,,FEW,0.00,VWS V15.00,2017-09-26 11:36:00,
2017-09-26 06:41:00,66.4,62.7,29.94,SSW,209,0.0,0.0,88,0.00,,FEW,0.00,VWS V15.00,2017-09-26 11:41:00,
2017-09-26 06:46:00,66.2,62.5,29.94,SSW,209,0.0,0.0,88,0.00,,FEW,0.00,VWS V15.00,2017-09-26 11:46:00,
2017-09-26 06:51:00,66.2,62.9,29.95,SSW,209,0.0,0.0,89,0.00,,FEW,0.00,VWS V15.00,2017-09-26 11:51:00,
2017-09-26 06:56:00,66.2,63.2,29.95,SSW,209,0.0,0.0,90,0.00,,FEW,0.00,VWS V15.00,2017-09-26 11:56:00,
2017-09-26 07:01:00,66.4,63.1,29.95,SSW,209,0.0,0.0,89,0.00,,FEW,0.00,VWS V15.00,2017-09-26 12:01:00,
2017-09-26 07:06:00,66.5,63.5,29.96,SSW,209,0.0,0.0,90,0.00,,FEW,0.00,VWS V15.00,2017-09-26 12:06:00,
2017-09-26 07:11:00,66.6,63.3,29.96,SSW,209,0.0,0.0,89,0.00,,FEW,0.00,VWS V15.00,2017-09-26 12:11:00,
2017-09-26 07:16:00,66.7,63.7,29.96,SSW,209,0.0,0.0,90,0.00,,FEW,0.00,VWS V15.00,2017-09-26 12:16:00,
2017-09-26 07:21:00,66.6,63.3,29.96,SSW,209,0.0,0.0,89,0.00,,FEW,0.00,VWS V15.00,2017-09-26 12:21:00,
2017-09-26 07:26:00,66.7,63.7,29.96,SSW,209,0.0,0.0,90,0.00,,FEW,0.00,VWS V15.00,2017-09-26 12:26:00,
2017-09-26 07:31:00,67.0,63.7,29.96,SSW,209,0.0,0.0,89,0.00,,FEW,0.00,VWS V15.00,2017-09-26 12:31:00,
2017-09-26 07:36:00,67.4,64.1,29.96,SSW,209,0.0,0.0,89,0.00,,FEW,0.00,VWS V15.00,2017-09-26 12:36:00,
2017-09-26 07:41:00,67.8,64.4,29.96,SSW,209,0.0,0.0,89,0.00,,FEW,0.00,VWS V15.00,2017-09-26 12:41:00,
2017-09-26 07:46:00,68.7,64.7,29.96,SSW,209,0.0,0.0,87,0.00,,FEW,0.00,VWS V15.00,2017-09-26 12:46:00,
2017-09-26 07:51:00,69.2,64.8,29.96,SSW,209,0.0,0.0,86,0.00,,FEW,0.00,VWS V15.00,2017-09-26 12:51:00,
2017-09-26 07:56:00,69.6,64.6,29.97,SSW,209,0.0,0.0,84,0.00,,FEW,0.00,VWS V15.00,2017-09-26 12:56:00,
2017-09-26 08:01:00,69.7,64.7,29.96,SSW,209,0.0,0.0,84,0.00,,FEW,0.00,VWS V15.00,2017-09-26 13:01:00,
2017-09-26 08:06:00,69.9,64.8,29.97,SSW,209,0.0,0.0,84,0.00,,FEW,0.00,VWS V15.00,2017-09-26 13:06:00,
2017-09-26 08:11:00,70.2,64.8,29.97,SSW,209,0.0,0.0,83,0.00,,FEW,0.00,VWS V15.00,2017-09-26 13:11:00,
2017-09-26 08:16:00,70.4,65.0,29.97,SSW,209,0.0,0.0,83,0.00,,FEW,0.00,VWS V15.00,2017-09-26 13:16:00,
2017-09-26 08:21:00,70.9,65.1,29.97,SSW,209,0.0,0.0,82,0.00,,FEW,0.00,VWS V15.00,2017-09-26 13:21:00,
2017-09-26 08:26:00,71.4,65.6,29.97,SSW,209,0.0,0.0,82,0.00,,FEW,0.00,VWS V15.00,2017-09-26 13:26:00,
2017-09-26 08:31:00,72.0,65.9,29.97,SSW,209,0.0,0.0,81,0.00,,FEW,0.00,VWS V15.00,2017-09-26 13:31:00,
2017-09-26 08:32:00,72.0,65.9,29.97,SSW,209,0.0,0.0,81,0.00,,FEW,0.00,VWS V15.00,2017-09-26 13:32:00,
2017-09-26 08:37:00,72.3,65.8,29.97,South,189,1.0,1.0,80,0.00,,FEW,0.00,VWS V15.00,2017-09-26 13:37:00,
2017-09-26 08:42:00,72.4,65.5,29.97,SSW,202,1.0,2.1,79,0.00,,FEW,0.00,VWS V15.00,2017-09-26 13:42:00,
2017-09-26 08:47:00,72.6,65.3,29.97,SSW,196,2.0,2.1,78,0.00,,FEW,0.00,VWS V15.00,2017-09-26 13:47:00,
2017-09-26 08:52:00,72.8,65.9,29.98,SSW,196,4.0,4.2,79,0.00,,FEW,0.00,VWS V15.00,2017-09-26 13:52:00,
2017-09-26 08:57:00,73.2,65.9,29.97,South,178,3.0,4.2,78,0.00,,FEW,0.00,VWS V15.00,2017-09-26 13:57:00,
2017-09-26 09:02:00,73.6,66.3,29.98,SW,230,2.0,3.1,78,0.00,,FEW,0.00,VWS V15.00,2017-09-26 14:02:00,
2017-09-26 09:07:00,73.7,66.1,29.98,South,174,3.0,5.2,77,0.00,,FEW,0.00,VWS V15.00,2017-09-26 14:07:00,
2017-09-26 09:12:00,73.5,66.2,29.98,SSW,211,1.0,2.1,78,0.00,,FEW,0.00,VWS V15.00,2017-09-26 14:12:00,
2017-09-26 09:17:00,73.6,66.7,29.98,SSW,203,2.0,2.1,79,0.00,,FEW,0.00,VWS V15.00,2017-09-26 14:17:00,
2017-09-26 09:22:00,74.5,66.8,29.98,South,191,2.0,3.1,77,0.00,,FEW,0.00,VWS V15.00,2017-09-26 14:22:00,
2017-09-26 09:27:00,75.3,67.2,29.98,South,191,2.0,2.1,76,0.00,,FEW,0.00,VWS V15.00,2017-09-26 14:27:00,
2017-09-26 09:32:00,75.9,67.0,29.98,SW,215,2.0,3.1,74,0.00,,FEW,0.00,VWS V15.00,2017-09-26 14:32:00,
2017-09-26 09:37:00,76.7,67.4,29.98,SSW,209,5.0,5.2,73,0.00,,FEW,0.00,VWS V15.00,2017-09-26 14:37:00,
2017-09-26 09:42:00,77.4,67.7,29.98,South,184,0.0,1.0,72,0.00,,FEW,0.00,VWS V15.00,2017-09-26 14:42:00,
2017-09-26 09:47:00,77.2,67.1,29.98,SSW,192,4.0,7.3,71,0.00,,FEW,0.00,VWS V15.00,2017-09-26 14:47:00,
2017-09-26 09:52:00,77.5,67.4,29.98,SW,215,5.0,7.3,71,0.00,,FEW,0.00,VWS V15.00,2017-09-26 14:52:00,
2017-09-26 09:57:00,78.1,67.9,29.98,SSE,161,2.0,3.1,71,0.00,,FEW,0.00,VWS V15.00,2017-09-26 14:57:00,
2017-09-26 10:02:00,78.3,67.3,29.98,SSW,196,5.0,5.2,69,0.00,,FEW,0.00,VWS V15.00,2017-09-26 15:02:00,
2017-09-26 10:07:00,78.3,68.1,29.98,SSW,212,4.0,4.2,71,0.00,,FEW,0.00,VWS V15.00,2017-09-26 15:07:00,
2017-09-26 10:12:00,79.1,68.5,29.98,WSW,240,3.0,7.3,70,0.00,,FEW,0.00,VWS V15.00,2017-09-26 15:12:00,
2017-09-26 10:17:00,80.2,69.1,29.98,WSW,240,3.0,5.2,69,0.00,,FEW,0.00,VWS V15.00,2017-09-26 15:17:00,
2017-09-26 10:22:00,79.4,67.5,29.99,SSW,202,5.0,6.3,67,0.00,,FEW,0.00,VWS V15.00,2017-09-26 15:22:00,
2017-09-26 10:27:00,79.8,68.3,29.98,SW,231,5.0,7.3,68,0.00,,FEW,0.00,VWS V15.00,2017-09-26 15:27:00,
2017-09-26 10:32:00,80.9,68.9,29.99,SW,234,3.0,4.2,67,0.00,,FEW,0.00,VWS V15.00,2017-09-26 15:32:00,
2017-09-26 10:37:00,81.4,68.5,29.98,SSW,198,5.0,5.2,65,0.00,,FEW,0.00,VWS V15.00,2017-09-26 15:37:00,
2017-09-26 10:42:00,81.2,68.3,29.99,SW,224,0.0,1.0,65,0.00,,FEW,0.00,VWS V15.00,2017-09-26 15:42:00,
2017-09-26 10:47:00,81.6,69.6,29.99,West,263,3.0,3.1,67,0.00,,FEW,0.00,VWS V15.00,2017-09-26 15:47:00,
2017-09-26 10:52:00,82.5,68.6,29.98,WSW,242,4.0,5.2,63,0.00,,FEW,0.00,VWS V15.00,2017-09-26 15:52:00,
2017-09-26 10:57:00,81.8,68.9,29.99,West,279,8.0,8.4,65,0.00,,FEW,0.00,VWS V15.00,2017-09-26 15:57:00,
2017-09-26 11:02:00,81.6,69.2,29.98,WSW,252,4.0,5.2,66,0.00,,FEW,0.00,VWS V15.00,2017-09-26 16:02:00,
2017-09-26 11:07:00,80.8,68.8,29.98,SW,228,2.0,2.1,67,0.00,,FEW,0.00,VWS V15.00,2017-09-26 16:07:00,
2017-09-26 11:12:00,81.2,70.1,29.98,West,274,8.0,8.4,69,0.00,,FEW,0.00,VWS V15.00,2017-09-26 16:12:00,
2017-09-26 11:17:00,81.6,69.2,29.98,West,273,3.0,7.3,66,0.00,,FEW,0.00,VWS V15.00,2017-09-26 16:17:00,
2017-09-26 11:22:00,80.5,68.5,29.98,NW,312,2.0,3.1,67,0.00,,FEW,0.00,VWS V15.00,2017-09-26 16:22:00,
2017-09-26 11:27:00,80.5,69.8,29.98,NW,322,0.0,2.1,70,0.00,,FEW,0.00,VWS V15.00,2017-09-26 16:27:00,
2017-09-26 11:32:00,81.1,69.6,29.98,WSW,238,6.0,8.4,68,0.00,,FEW,0.00,VWS V15.00,2017-09-26 16:32:00,
2017-09-26 11:37:00,81.2,68.8,29.98,SW,215,6.0,6.3,66,0.00,,FEW,0.00,VWS V15.00,2017-09-26 16:37:00,
2017-09-26 11:42:00,83.2,71.6,29.98,SW,227,4.0,6.3,68,0.00,,FEW,0.00,VWS V15.00,2017-09-26 16:42:00,
2017-09-26 11:47:00,82.7,70.6,29.98,West,278,10.0,10.5,67,0.00,,FEW,0.00,VWS V15.00,2017-09-26 16:47:00,
2017-09-26 11:52:00,82.8,68.5,29.98,SW,228,5.0,6.3,62,0.00,,FEW,0.00,VWS V15.00,2017-09-26 16:52:00,
2017-09-26 11:57:00,81.9,68.5,29.98,WSW,255,5.0,6.3,64,0.00,,FEW,0.00,VWS V15.00,2017-09-26 16:57:00,
2017-09-26 12:02:00,81.8,68.9,29.98,WSW,252,3.0,3.1,65,0.00,,FEW,0.00,VWS V15.00,2017-09-26 17:02:00,
2017-09-26 12:07:00,82.1,69.2,29.98,WSW,252,3.0,5.2,65,0.00,,FEW,0.00,VWS V15.00,2017-09-26 17:07:00,
2017-09-26 12:12:00,83.6,69.7,29.98,WSW,246,5.0,8.4,63,0.00,,FEW,0.00,VWS V15.00,2017-09-26 17:12:00,
2017-09-26 12:17:00,84.3,68.9,29.98,South,182,6.0,8.4,60,0.00,,FEW,0.00,VWS V15.00,2017-09-26 17:17:00,
2017-09-26 12:22:00,85.3,71.3,29.98,WNW,287,4.0,8.4,63,0.00,,FEW,0.00,VWS V15.00,2017-09-26 17:22:00,
2017-09-26 12:27:00,85.2,70.7,29.98,West,259,8.0,9.4,62,0.00,,FEW,0.00,VWS V15.00,2017-09-26 17:27:00,
2017-09-26 12:29:00,85.4,71.4,29.98,West,268,7.0,7.3,63,0.00,,FEW,0.00,VWS V15.00,2017-09-26 17:29:00,
2017-09-26 12:34:00,85.3,70.8,29.98,North,360,1.0,2.1,62,0.00,,FEW,0.00,VWS V15.00,2017-09-26 17:34:00,
2017-09-26 12:39:00,82.9,69.9,29.98,North,5,4.0,5.2,65,0.00,,FEW,0.00,VWS V15.00,2017-09-26 17:39:00,
2017-09-26 12:44:00,82.3,69.4,29.98,WNW,290,4.0,6.3,65,0.00,,FEW,0.00,VWS V15.00,2017-09-26 17:44:00,
2017-09-26 12:49:00,84.2,71.2,29.98,NNW,329,2.0,3.1,65,0.00,,FEW,0.00,VWS V15.00,2017-09-26 17:49:00,
2017-09-26 12:54:00,83.1,69.7,29.98,NW,319,1.0,2.1,64,0.00,,FEW,0.00,VWS V15.00,2017-09-26 17:54:00,
2017-09-26 12:59:00,83.6,70.1,29.97,North,351,2.0,3.1,64,0.00,,FEW,0.00,VWS V15.00,2017-09-26 17:59:00,
2017-09-26 13:04:00,84.8,70.8,29.97,West,267,7.0,7.3,63,0.00,,FEW,0.00,VWS V15.00,2017-09-26 18:04:00,
2017-09-26 13:09:00,85.3,72.2,29.97,West,276,3.0,3.1,65,0.00,,FEW,0.00,VWS V15.00,2017-09-26 18:09:00,
2017-09-26 13:14:00,85.2,70.7,29.96,WSW,251,2.0,3.1,62,0.00,,FEW,0.00,VWS V15.00,2017-09-26 18:14:00,
2017-09-26 13:19:00,83.3,69.4,29.96,West,277,8.0,11.5,63,0.00,,FEW,0.00,VWS V15.00,2017-09-26 18:19:00,
2017-09-26 13:24:00,83.4,70.4,29.96,West,271,4.0,6.3,65,0.00,,FEW,0.00,VWS V15.00,2017-09-26 18:24:00,
2017-09-26 13:29:00,83.4,69.0,29.96,South,182,0.0,2.1,62,0.00,,FEW,0.00,VWS V15.00,2017-09-26 18:29:00,
2017-09-26 13:34:00,83.5,68.7,29.95,North,5,0.0,0.0,61,0.00,,FEW,0.00,VWS V15.00,2017-09-26 18:34:00,
2017-09-26 13:39:00,83.7,69.8,29.95,SW,231,3.0,3.1,63,0.00,,FEW,0.00,VWS V15.00,2017-09-26 18:39:00,
2017-09-26 13:44:00,85.9,69.4,29.95,SSW,208,4.0,4.2,58,0.00,,FEW,0.00,VWS V15.00,2017-09-26 18:44:00,